Startpagina
METAR-TAF:

METAR-TAF

Vliegvelden :

Luchthaven Bole Internationaal

Addis Abeba, Ethiopië

breedte: 08-59N, lengte: 038-48E, hoogte: 2355 m

Actueel weer

Wind 5 kt uit het zuidzuidoosten
Temperatuur 16°C
Vochtigheid 88%
Druk 1026 hPa
Zicht: 9000 m
Weinig wolken op 2000 ft, Cumulonimbus.
Gebroken wolken op 2300 ft
Verspreide wolken op 7000 ft
regen,

METAR: HAAB 251000 15005KT 9000 RA FEW020CB BKN023 SCT070 16/14 Q1026

Tijdstip: 13:51 (10:51 UTC)

Verwachting

Dit bericht is 7 uur en het 21 minuten geleden gemaakt, om 03:30 UTC
Verwachting geldig van 25 om 06 UTC tot 26 om 12 UTC
Wind 7 kt uit het westzuidwesten
Zicht: 9000 m
Gebroken wolken op 2400 ft
Gebroken wolken op 7000 ft
lichte regen
Wijzigt naar
van 25 om 06 UTC tot 25 om 10 UTC
Zicht: 6000 m
Gebroken wolken op 2000 ft
regen
Wijzigt naar
van 25 om 10 UTC tot 25 om 16 UTC
Zicht: 8000 m
Gebroken wolken op 2400 ft
lichte regen,

TAF: HAAB 250330Z 2506/2612 25007KT 9000 -RA BKN024 BKN070 BECMG 2506/2510 6000 RA BKN020 BECMG 2510/2516 8000 -RA BKN024

Waarnemingen en weersverwachtingen van meer dan 4000 vliegvelden (METAR en TAF).

De beschikbare stations zijn de gele en rode punten op de kaart.

Ga met uw muis naar het station om de naam te zien.

Klik dan om waarnemingen en weersverwachtingen te zien.

kaart wijzigen: klik op de groene knoppen met een zwart kruis om in te zoomen, op de groene knop met een streepje om uit te zoomen of op de groene pijlen voor aangrenzende kaarten.


METAR-TAF: